Time;durP1;ratioP1;P1;durP2;ratioP2;P2;SDS_P1;SDS_P2;PMS_P1;PMS_P2;Temp;Humidity;BMP_temperature;BMP_pressure;BME280_temperature;BME280_humidity;BME280_pressure;Samples;Min_cycle;Max_cycle;Signal;HPM_P1;HPM_P2
2021/01/31 00:00:45;;;;;;;26.80;13.82;;;-1.00;99.90;;;;;;5093431;28;20035;-71
2021/01/31 00:03:17;;;;;;;25.95;14.10;;;-1.00;99.90;;;;;;5092166;28;20085;-72
2021/01/31 00:05:44;;;;;;;18.52;10.48;;;-1.10;99.90;;;;;;5091590;28;20074;-71
2021/01/31 00:08:12;;;;;;;20.30;11.95;;;-1.10;99.90;;;;;;5092117;28;20531;-71
2021/01/31 00:10:38;;;;;;;23.80;13.35;;;-1.00;99.90;;;;;;5091910;28;20031;-71
2021/01/31 00:13:05;;;;;;;26.35;13.45;;;-1.00;99.90;;;;;;5094146;28;20020;-71
2021/01/31 00:15:33;;;;;;;26.00;13.02;;;-1.10;99.90;;;;;;5079542;28;20032;-71
2021/01/31 00:18:00;;;;;;;23.13;12.65;;;-1.10;99.90;;;;;;5095462;28;20362;-71
2021/01/31 00:20:27;;;;;;;26.30;13.73;;;-1.10;99.90;;;;;;5097126;28;20028;-71
2021/01/31 00:22:53;;;;;;;25.90;13.85;;;-1.20;99.90;;;;;;5095943;28;20031;-72
2021/01/31 00:25:19;;;;;;;26.88;13.75;;;-1.20;99.90;;;;;;5095161;28;20396;-72
2021/01/31 00:27:45;;;;;;;27.60;13.73;;;-1.20;99.90;;;;;;5096965;28;20028;-72
2021/01/31 00:30:15;;;;;;;26.20;13.88;;;-1.20;99.90;;;;;;5096663;28;20016;-71
2021/01/31 00:32:41;;;;;;;27.27;14.05;;;-1.20;99.90;;;;;;5096854;28;20027;-71
2021/01/31 00:35:07;;;;;;;25.48;13.30;;;-1.20;99.90;;;;;;5078189;28;20024;-71
2021/01/31 00:37:32;;;;;;;27.73;14.35;;;-1.20;99.90;;;;;;5096803;28;20020;-71
2021/01/31 00:39:58;;;;;;;29.13;14.80;;;-1.20;99.90;;;;;;5095259;28;20465;-71
2021/01/31 00:42:24;;;;;;;28.45;14.43;;;-1.20;99.90;;;;;;5096692;28;20469;-72
2021/01/31 00:44:51;;;;;;;28.50;15.43;;;-1.30;99.90;;;;;;5095398;28;20036;-71
2021/01/31 00:47:17;;;;;;;27.25;13.48;;;-1.30;99.90;;;;;;5094904;28;20023;-71
2021/01/31 00:49:44;;;;;;;27.98;14.27;;;-1.30;99.90;;;;;;5094768;28;20119;-71
2021/01/31 00:52:10;;;;;;;28.77;15.57;;;-1.30;99.90;;;;;;5095058;28;20059;-71
2021/01/31 00:54:36;;;;;;;30.20;15.70;;;-1.30;99.90;;;;;;5096469;28;20077;-71
2021/01/31 00:57:01;;;;;;;29.65;15.02;;;-1.40;99.90;;;;;;5096121;28;20024;-69
2021/01/31 00:59:27;;;;;;;28.38;15.10;;;-1.30;99.90;;;;;;5095205;28;20137;-72
2021/01/31 01:01:52;;;;;;;25.63;14.02;;;-1.40;99.90;;;;;;5094798;28;20039;-72
2021/01/31 01:04:18;;;;;;;28.58;15.38;;;-1.40;99.90;;;;;;5077482;28;20024;-72
2021/01/31 01:06:45;;;;;;;29.08;14.95;;;-1.40;99.90;;;;;;5096152;28;20028;-72
2021/01/31 01:09:12;;;;;;;31.67;15.65;;;-1.50;99.90;;;;;;5094512;28;20065;-71
2021/01/31 01:11:37;;;;;;;27.58;15.00;;;-1.50;99.90;;;;;;5094399;28;20539;-72
2021/01/31 01:14:03;;;;;;;28.88;14.30;;;-1.60;99.90;;;;;;5094670;28;20112;-71
2021/01/31 01:16:28;;;;;;;29.15;14.52;;;-1.50;99.90;;;;;;5094895;28;20020;-71
2021/01/31 01:18:54;;;;;;;28.27;14.00;;;-1.50;99.90;;;;;;5094976;28;20092;-71
2021/01/31 01:21:19;;;;;;;27.85;14.57;;;-1.60;99.90;;;;;;5095934;28;20028;-71
2021/01/31 01:23:45;;;;;;;29.95;15.10;;;-1.60;99.90;;;;;;5095878;28;20536;-71
2021/01/31 01:26:11;;;;;;;33.15;16.45;;;-1.60;99.90;;;;;;5094292;28;20032;-71
2021/01/31 01:28:36;;;;;;;30.42;14.73;;;-1.70;99.90;;;;;;5077116;28;20024;-72
2021/01/31 01:31:02;;;;;;;28.20;13.90;;;-1.70;99.90;;;;;;5096053;28;20139;-71
2021/01/31 01:33:27;;;;;;;27.50;13.90;;;-1.80;99.90;;;;;;5078241;28;20422;-71
2021/01/31 01:35:53;;;;;;;26.25;13.57;;;-1.70;99.90;;;;;;5094493;28;20508;-71
2021/01/31 01:38:19;;;;;;;27.67;14.32;;;-1.70;99.90;;;;;;5095394;28;20024;-71
2021/01/31 01:40:44;;;;;;;26.42;14.15;;;-1.80;99.90;;;;;;5093787;28;20395;-72
2021/01/31 01:43:18;;;;;;;27.88;14.18;;;-1.80;99.90;;;;;;5093751;28;20028;-72
2021/01/31 01:45:55;;;;;;;31.30;14.85;;;-1.90;99.90;;;;;;5076683;28;20388;-72
2021/01/31 01:48:21;;;;;;;28.52;14.27;;;-1.90;99.90;;;;;;5095450;28;20024;-72
2021/01/31 01:50:51;;;;;;;29.08;14.52;;;-1.90;99.90;;;;;;5094246;28;20081;-72
2021/01/31 01:53:19;;;;;;;28.17;14.80;;;-1.90;99.90;;;;;;5094458;28;20032;-72
2021/01/31 01:56:04;;;;;;;30.13;15.48;;;-1.90;99.90;;;;;;5093935;28;20077;-72
2021/01/31 01:58:30;;;;;;;33.85;15.50;;;-1.90;99.90;;;;;;5093486;28;20477;-72
2021/01/31 02:00:57;;;;;;;32.90;14.82;;;-1.90;99.90;;;;;;5093755;28;20028;-72
2021/01/31 02:03:28;;;;;;;30.20;15.45;;;-2.00;99.90;;;;;;5095169;28;20030;-72
2021/01/31 02:06:01;;;;;;;28.75;14.95;;;-2.00;99.90;;;;;;5093166;28;20127;-72
2021/01/31 02:08:26;;;;;;;;;;;-2.00;99.90;;;;;;5095545;28;20012;-71
2021/01/31 02:10:52;;;;;;;31.10;15.90;;;-2.00;99.90;;;;;;5095025;28;19904;-72
2021/01/31 02:13:17;;;;;;;32.55;15.50;;;-2.10;99.90;;;;;;5077077;28;20372;-71
2021/01/31 02:15:46;;;;;;;29.75;15.20;;;-2.10;99.90;;;;;;5094621;28;20531;-71
2021/01/31 02:18:37;;;;;;;30.73;15.02;;;-2.10;99.90;;;;;;5094896;28;20024;-71
2021/01/31 02:21:32;;;;;;;32.22;15.98;;;-2.20;99.90;;;;;;5094736;28;20020;-71
2021/01/31 02:24:37;;;;;;;28.88;14.93;;;-2.30;99.90;;;;;;5092975;28;20065;-71
2021/01/31 02:27:35;;;;;;;31.75;15.70;;;-2.30;99.90;;;;;;5092815;28;20062;-71
2021/01/31 02:30:24;;;;;;;29.55;15.13;;;-2.20;99.90;;;;;;5094631;28;20023;-71
2021/01/31 02:33:24;;;;;;;29.58;15.80;;;-2.30;99.90;;;;;;5075896;28;20021;-71
2021/01/31 02:35:56;;;;;;;33.67;16.23;;;-2.20;99.90;;;;;;5092382;28;20119;-71
2021/01/31 02:38:38;;;;;;;33.42;16.38;;;-2.30;99.90;;;;;;5093453;28;20357;-71
2021/01/31 02:41:10;;;;;;;33.00;16.27;;;-2.30;99.90;;;;;;5076371;28;20406;-72
2021/01/31 02:43:41;;;;;;;30.97;14.77;;;-2.30;99.90;;;;;;5093350;28;20028;-72
2021/01/31 02:46:31;;;;;;;35.10;16.67;;;-2.30;99.90;;;;;;5093376;28;20077;-71
2021/01/31 02:49:08;;;;;;;32.45;15.45;;;-2.30;99.90;;;;;;5094411;28;20044;-71
2021/01/31 02:51:45;;;;;;;34.55;16.38;;;-2.30;99.90;;;;;;5094111;28;20052;-71
2021/01/31 02:54:21;;;;;;;32.28;15.95;;;-2.30;99.90;;;;;;5076270;28;20066;-71
2021/01/31 02:56:59;;;;;;;34.78;15.63;;;-2.40;99.90;;;;;;5075626;28;20027;-71
2021/01/31 02:59:33;;;;;;;30.77;15.90;;;-2.40;99.90;;;;;;5094304;28;20024;-71
2021/01/31 03:02:04;;;;;;;37.53;16.67;;;-2.40;99.90;;;;;;5076475;28;20118;-71
2021/01/31 03:04:42;;;;;;;28.43;12.97;;;-2.50;99.90;;;;;;5075987;28;20507;-71
2021/01/31 03:07:15;;;;;;;34.67;15.48;;;-2.50;99.90;;;;;;5094217;28;20097;-71
2021/01/31 03:09:48;;;;;;;35.13;17.35;;;-2.50;99.90;;;;;;5092395;28;20111;-71
2021/01/31 03:12:21;;;;;;;36.10;16.20;;;-2.60;99.90;;;;;;5092404;28;20024;-71
2021/01/31 03:14:55;;;;;;;38.22;16.70;;;-2.60;99.90;;;;;;5094155;28;20028;-72
2021/01/31 03:17:27;;;;;;;32.50;16.90;;;-2.60;99.90;;;;;;5092333;28;20024;-72
2021/01/31 03:20:15;;;;;;;36.42;18.02;;;-2.60;99.90;;;;;;5093517;28;20024;-71
2021/01/31 03:22:50;;;;;;;35.47;15.70;;;-2.60;99.90;;;;;;5092260;28;20024;-71
2021/01/31 03:25:25;;;;;;;34.65;15.63;;;-2.60;99.90;;;;;;5092978;28;20027;-72
2021/01/31 03:27:51;;;;;;;36.97;16.95;;;-2.60;99.90;;;;;;5092571;28;20020;-71
2021/01/31 03:30:17;;;;;;;34.05;16.73;;;-2.60;99.90;;;;;;5093444;28;20017;-71
2021/01/31 03:32:52;;;;;;;33.67;15.90;;;-2.60;99.90;;;;;;5075355;28;20123;-72
2021/01/31 03:35:27;;;;;;;33.13;15.85;;;-2.60;99.90;;;;;;5076172;28;20024;-71
2021/01/31 03:37:59;;;;;;;38.78;16.70;;;-2.60;99.90;;;;;;5092128;28;20169;-72
2021/01/31 03:40:25;;;;;;;32.63;15.93;;;-2.60;99.90;;;;;;5093370;28;20111;-71
2021/01/31 03:42:51;;;;;;;32.97;15.38;;;-2.70;99.90;;;;;;5093905;28;20024;-71
2021/01/31 03:45:27;;;;;;;34.38;16.20;;;-2.70;99.90;;;;;;5092329;28;20385;-71
2021/01/31 03:48:05;;;;;;;36.08;16.50;;;-2.70;99.90;;;;;;5093574;28;20016;-71
2021/01/31 03:50:31;;;;;;;34.83;15.85;;;-2.70;99.90;;;;;;5078978;28;20024;-71
2021/01/31 03:52:57;;;;;;;35.13;16.60;;;-2.70;99.90;;;;;;5078967;28;20118;-71
2021/01/31 03:55:23;;;;;;;33.95;15.98;;;-2.70;99.90;;;;;;5096211;28;20357;-71
2021/01/31 03:57:55;;;;;;;32.00;15.93;;;-2.70;99.90;;;;;;5096180;28;20031;-72
2021/01/31 04:00:25;;;;;;;31.17;14.90;;;-2.80;99.90;;;;;;5096153;28;20024;-72
2021/01/31 04:02:57;;;;;;;33.72;15.18;;;-2.70;99.90;;;;;;5097258;28;20078;-72
2021/01/31 04:05:25;;;;;;;31.95;15.00;;;-2.70;99.90;;;;;;5095632;28;20044;-72
2021/01/31 04:07:53;;;;;;;30.98;15.25;;;-2.70;99.90;;;;;;5095716;28;20088;-71
2021/01/31 04:10:19;;;;;;;32.50;14.88;;;-2.70;99.90;;;;;;5097133;28;20051;-71
2021/01/31 04:12:51;;;;;;;32.45;15.23;;;-2.70;99.90;;;;;;5096124;28;20028;-72
2021/01/31 04:15:46;;;;;;;32.22;14.98;;;-2.70;99.90;;;;;;5096116;28;20027;-71
2021/01/31 04:18:14;;;;;;;34.60;16.25;;;-2.80;99.90;;;;;;5097104;28;20024;-71
2021/01/31 04:20:40;;;;;;;28.92;14.55;;;-2.80;99.90;;;;;;5097179;28;20444;-72
2021/01/31 04:23:06;;;;;;;32.70;14.80;;;-2.90;99.90;;;;;;5095334;28;20024;-72
2021/01/31 04:25:32;;;;;;;31.92;15.63;;;-2.80;99.90;;;;;;5078317;28;20085;-70
2021/01/31 04:28:04;;;;;;;32.53;14.73;;;-2.90;99.90;;;;;;5078441;28;20028;-72
2021/01/31 04:30:29;;;;;;;29.75;14.43;;;-2.90;99.90;;;;;;5079221;28;20031;-72
2021/01/31 04:32:55;;;;;;;31.23;15.45;;;-2.90;99.90;;;;;;5078236;28;20021;-71
2021/01/31 04:35:20;;;;;;;32.53;15.60;;;-2.90;99.90;;;;;;5095046;28;20060;-70
2021/01/31 04:37:46;;;;;;;33.13;14.98;;;-2.90;99.90;;;;;;5095649;28;20056;-70
2021/01/31 04:40:14;;;;;;;33.78;16.77;;;-2.90;99.90;;;;;;5095372;28;20036;-72
2021/01/31 04:42:40;;;;;;;34.72;16.02;;;-2.90;99.90;;;;;;5095343;28;20069;-71
2021/01/31 04:45:10;;;;;;;30.83;14.20;;;-2.90;99.90;;;;;;5078056;28;20035;-72
2021/01/31 04:47:45;;;;;;;32.13;15.93;;;-2.80;99.90;;;;;;5096682;28;20031;-72
2021/01/31 04:50:34;;;;;;;30.58;14.90;;;-2.90;99.90;;;;;;5096649;28;20089;-72
2021/01/31 04:53:26;;;;;;;32.53;15.38;;;-3.00;99.90;;;;;;5077910;28;20073;-72
2021/01/31 04:56:05;;;;;;;32.50;15.10;;;-3.00;99.90;;;;;;5077804;28;20123;-72
2021/01/31 04:58:53;;;;;;;31.73;15.23;;;-2.90;99.90;;;;;;5096142;28;20028;-70
2021/01/31 05:01:34;;;;;;;31.92;14.18;;;-3.00;99.90;;;;;;5094761;28;20032;-72
2021/01/31 05:04:04;;;;;;;37.03;15.73;;;-3.10;99.90;;;;;;5094583;28;20028;-70
2021/01/31 05:06:42;;;;;;;34.65;15.75;;;-3.10;99.90;;;;;;5094812;28;20055;-72
2021/01/31 05:09:15;;;;;;;34.97;15.98;;;-3.00;99.90;;;;;;5096245;28;20027;-70
2021/01/31 05:11:57;;;;;;;33.45;15.48;;;-3.10;99.90;;;;;;5095089;28;20023;-70
2021/01/31 05:14:53;;;;;;;36.97;16.58;;;-3.00;99.90;;;;;;5077484;28;20020;-70
2021/01/31 05:17:19;;;;;;;35.00;16.38;;;-3.00;99.90;;;;;;5080138;28;20024;-70
2021/01/31 05:19:45;;;;;;;36.38;16.83;;;-3.00;99.90;;;;;;5095721;28;20073;-70
2021/01/31 05:22:14;;;;;;;35.28;17.55;;;-3.00;99.90;;;;;;5094217;28;20115;-70
2021/01/31 05:24:40;;;;;;;33.75;16.42;;;-3.00;99.90;;;;;;5094499;28;20146;-70
2021/01/31 05:27:07;;;;;;;36.60;16.75;;;-3.00;99.90;;;;;;5095523;28;20103;-70
2021/01/31 05:29:36;;;;;;;31.60;15.52;;;-3.00;99.90;;;;;;5095820;28;20043;-70
2021/01/31 05:32:08;;;;;;;34.55;16.45;;;-3.10;99.90;;;;;;5094356;28;20043;-70
2021/01/31 05:34:55;;;;;;;32.92;15.88;;;-3.10;99.90;;;;;;5095484;28;20525;-70
2021/01/31 05:37:26;;;;;;;33.53;14.93;;;-3.20;99.90;;;;;;5094261;28;20107;-70
2021/01/31 05:40:10;;;;;;;37.95;15.65;;;-3.20;99.90;;;;;;5095133;28;20107;-70
2021/01/31 05:42:45;;;;;;;33.85;15.95;;;-3.20;99.90;;;;;;5094433;28;20064;-70
2021/01/31 05:45:29;;;;;;;36.50;15.90;;;-3.20;99.90;;;;;;5076829;28;20028;-70
2021/01/31 05:47:56;;;;;;;32.25;14.93;;;-3.20;99.90;;;;;;5093695;28;20411;-70
2021/01/31 05:50:42;;;;;;;34.50;16.95;;;-3.20;99.90;;;;;;5076814;28;20111;-70
2021/01/31 05:53:30;;;;;;;37.50;16.40;;;-3.20;99.90;;;;;;5093883;28;20016;-70
2021/01/31 05:56:28;;;;;;;36.22;15.65;;;-3.20;99.90;;;;;;5076635;28;20032;-70
2021/01/31 06:04:30;;;;;;;37.03;16.70;;;-3.20;99.90;;;;;;5112240;27;20745;-69
2021/01/31 06:07:09;;;;;;;37.22;15.90;;;-3.20;99.90;;;;;;5111679;28;20024;-72
2021/01/31 06:09:42;;;;;;;33.55;16.02;;;-3.20;99.90;;;;;;5110940;28;20026;-69
2021/01/31 06:12:14;;;;;;;35.83;15.32;;;-3.20;99.90;;;;;;5110445;28;20113;-72
2021/01/31 06:14:43;;;;;;;34.70;16.10;;;-3.20;99.90;;;;;;5093614;28;20024;-70
2021/01/31 06:17:23;;;;;;;37.90;16.90;;;-3.20;99.90;;;;;;5111770;28;20024;-70
2021/01/31 06:19:56;;;;;;;40.13;17.67;;;-3.30;99.90;;;;;;5111171;28;20020;-70
2021/01/31 06:22:40;;;;;;;40.28;16.90;;;-3.20;99.90;;;;;;5109766;28;20028;-70
2021/01/31 06:25:07;;;;;;;37.47;17.48;;;-3.20;99.90;;;;;;5109786;28;20051;-70
2021/01/31 06:27:35;;;;;;;37.38;17.65;;;-3.30;99.90;;;;;;5110104;28;20410;-70
2021/01/31 06:32:52;;;;;;;36.70;16.90;;;-3.40;99.90;;;;;;5111990;27;20351;-72
2021/01/31 06:35:22;;;;;;;42.58;17.73;;;-3.40;99.90;;;;;;5111973;28;20074;-70
2021/01/31 06:40:40;;;;;;;40.42;17.33;;;-3.40;99.90;;;;;;5112241;27;20351;-70
2021/01/31 06:43:36;;;;;;;41.05;18.67;;;-3.40;99.90;;;;;;5110513;28;20024;-70
2021/01/31 06:46:14;;;;;;;43.58;18.23;;;-3.40;99.90;;;;;;5110110;28;20032;-70
2021/01/31 06:51:37;;;;;;;42.88;19.20;;;-3.40;99.90;;;;;;5112293;27;20351;-70
2021/01/31 06:57:47;;;;;;;41.88;17.38;;;-3.40;99.90;;;;;;5112201;27;20907;-70
2021/01/31 07:00:52;;;;;;;40.63;18.17;;;-3.40;99.90;;;;;;5111242;28;20028;-70
2021/01/31 07:03:58;;;;;;;42.88;17.70;;;-3.40;99.90;;;;;;5111781;28;20016;-71
2021/01/31 07:07:03;;;;;;;40.72;17.95;;;-3.50;99.90;;;;;;5111104;28;20028;-70
2021/01/31 07:09:45;;;;;;;43.40;18.38;;;-3.50;99.90;;;;;;5109796;28;20020;-70
2021/01/31 07:12:17;;;;;;;43.78;19.50;;;-3.40;99.90;;;;;;5094318;28;20024;-70
2021/01/31 07:15:03;;;;;;;;;;;-3.50;99.90;;;;;;5110574;28;20050;-72
2021/01/31 07:17:39;;;;;;;39.30;17.10;;;-3.60;99.90;;;;;;5111258;28;19904;-72
2021/01/31 07:20:26;;;;;;;43.05;18.77;;;-3.60;99.90;;;;;;5111581;28;20020;-71
2021/01/31 07:23:00;;;;;;;45.38;19.23;;;-3.40;99.90;;;;;;5111497;28;20020;-72
2021/01/31 07:25:35;;;;;;;46.28;18.02;;;-3.50;99.90;;;;;;5110952;28;20063;-71
2021/01/31 07:28:12;;;;;;;42.20;18.17;;;-3.40;99.90;;;;;;5110164;28;20030;-71
2021/01/31 07:30:53;;;;;;;42.70;19.00;;;-3.30;99.90;;;;;;5092608;28;20028;-71
2021/01/31 07:33:25;;;;;;;40.83;18.10;;;-3.30;99.90;;;;;;5111046;28;20110;-71
2021/01/31 07:36:00;;;;;;;40.15;18.60;;;-3.20;99.90;;;;;;5109753;28;20107;-72
2021/01/31 07:38:49;;;;;;;43.65;18.65;;;-3.20;99.90;;;;;;5109523;28;20024;-71
2021/01/31 07:41:16;;;;;;;38.85;19.10;;;-3.10;99.90;;;;;;5109374;28;20020;-73
2021/01/31 07:43:42;;;;;;;42.17;18.77;;;-3.00;99.90;;;;;;5109310;28;20031;-69
2021/01/31 07:46:12;;;;;;;41.08;19.27;;;-2.90;99.90;;;;;;5110137;28;20433;-71
2021/01/31 07:54:24;;;;;;;37.45;17.58;;;-2.70;99.90;;;;;;5091884;28;20344;-72
2021/01/31 07:56:53;;;;;;;30.75;15.88;;;0.30;99.90;;;;;;5073821;28;20031;-71
2021/01/31 07:59:24;;;;;;;28.40;15.32;;;1.20;99.90;;;;;;5090068;28;20074;-72
2021/01/31 08:01:52;;;;;;;25.73;14.15;;;2.40;99.90;;;;;;5089681;28;20039;-70
2021/01/31 08:04:25;;;;;;;23.77;13.07;;;2.90;99.90;;;;;;5091448;28;20024;-72
2021/01/31 08:06:54;;;;;;;23.25;13.82;;;3.10;99.90;;;;;;5090859;28;20028;-72
2021/01/31 08:12:08;;;;;;;24.08;13.75;;;3.20;99.90;;;;;;5091862;28;20405;-70
2021/01/31 08:15:04;;;;;;;23.10;13.38;;;3.40;99.90;;;;;;5089748;28;20123;-70
2021/01/31 08:17:56;;;;;;;25.40;14.68;;;3.30;99.90;;;;;;5089709;28;20030;-70
2021/01/31 08:23:34;;;;;;;23.77;14.25;;;3.30;99.90;;;;;;5091884;27;20352;-70
2021/01/31 08:26:05;;;;;;;27.63;14.50;;;3.70;99.90;;;;;;5091226;28;20028;-71
2021/01/31 08:28:34;;;;;;;20.55;13.60;;;3.70;99.90;;;;;;5091506;28;20488;-71
2021/01/31 08:31:09;;;;;;;22.63;14.13;;;4.20;99.90;;;;;;5090325;28;20107;-71
2021/01/31 08:33:37;;;;;;;22.60;13.80;;;4.70;99.90;;;;;;5089544;28;20395;-71
2021/01/31 08:36:22;;;;;;;21.77;13.55;;;4.90;99.90;;;;;;5089986;28;20350;-71
2021/01/31 08:38:51;;;;;;;22.70;14.02;;;5.50;99.90;;;;;;5091066;28;20039;-71
2021/01/31 08:41:38;;;;;;;21.08;13.75;;;6.00;99.90;;;;;;5091242;28;20032;-71
2021/01/31 08:47:00;;;;;;;21.08;13.05;;;6.60;99.90;;;;;;5112218;27;20351;-71
2021/01/31 08:49:27;;;;;;;22.88;14.05;;;6.80;99.90;;;;;;5111672;28;20024;-71
2021/01/31 08:52:12;;;;;;;22.95;13.85;;;6.30;99.90;;;;;;5094087;28;20059;-71
2021/01/31 08:54:38;;;;;;;22.45;13.73;;;6.60;99.90;;;;;;5111891;28;20073;-71
2021/01/31 08:57:07;;;;;;;21.42;13.57;;;6.60;99.90;;;;;;5093015;28;20028;-71
2021/01/31 08:59:39;;;;;;;21.38;13.95;;;6.60;99.90;;;;;;5109847;28;20084;-71
2021/01/31 09:05:20;;;;;;;22.05;14.38;;;5.70;99.90;;;;;;5112197;27;20400;-71
2021/01/31 09:07:48;;;;;;;22.45;14.30;;;5.50;99.90;;;;;;5110499;28;20039;-71
2021/01/31 09:10:33;;;;;;;20.83;13.82;;;5.20;99.90;;;;;;5110024;28;20055;-71
2021/01/31 09:13:34;;;;;;;22.05;15.00;;;6.20;99.90;;;;;;5093851;28;20059;-72
2021/01/31 09:16:22;;;;;;;22.98;14.15;;;7.00;99.90;;;;;;5111738;28;20023;-71
2021/01/31 09:19:02;;;;;;;20.40;13.88;;;6.90;99.90;;;;;;5110255;28;20016;-71
2021/01/31 09:21:32;;;;;;;21.90;14.38;;;7.10;99.90;;;;;;5111679;28;20022;-71
2021/01/31 09:24:00;;;;;;;20.17;12.85;;;6.50;99.90;;;;;;5110058;28;20460;-71
2021/01/31 09:26:28;;;;;;;19.20;13.38;;;7.40;99.90;;;;;;5092837;28;20028;-71
2021/01/31 09:28:55;;;;;;;20.95;13.90;;;7.90;99.90;;;;;;5110578;28;20016;-71
2021/01/31 09:31:22;;;;;;;21.58;14.30;;;7.40;99.90;;;;;;5110979;28;20020;-72
2021/01/31 09:33:53;;;;;;;19.48;14.23;;;7.80;99.90;;;;;;5109990;28;20028;-72
2021/01/31 09:36:25;;;;;;;18.85;12.98;;;8.20;99.90;;;;;;5093365;28;20069;-71
2021/01/31 09:38:53;;;;;;;21.02;14.68;;;8.90;99.90;;;;;;5094089;28;20035;-71
2021/01/31 09:41:21;;;;;;;20.52;13.88;;;8.30;99.90;;;;;;5110174;28;20433;-71
2021/01/31 09:43:52;;;;;;;21.20;14.60;;;8.20;99.90;;;;;;5092697;28;20096;-72
2021/01/31 09:46:19;;;;;;;17.08;12.70;;;9.60;99.30;;;;;;5109396;28;20031;-71
2021/01/31 09:48:45;;;;;;;20.85;14.23;;;10.40;97.90;;;;;;5109366;28;20019;-72
2021/01/31 09:51:25;;;;;;;19.23;13.73;;;9.80;99.40;;;;;;5109586;28;20038;-71
2021/01/31 09:53:51;;;;;;;21.83;13.43;;;9.10;99.20;;;;;;5111067;28;20120;-72
2021/01/31 09:56:38;;;;;;;19.45;14.15;;;8.10;99.90;;;;;;5109179;28;20062;-72
2021/01/31 09:59:36;;;;;;;19.63;13.63;;;9.30;99.90;;;;;;5110500;28;20384;-72
2021/01/31 10:02:11;;;;;;;20.00;13.98;;;9.80;99.70;;;;;;5110246;28;20063;-72
2021/01/31 10:04:39;;;;;;;18.80;13.88;;;10.70;91.70;;;;;;5109119;28;20387;-72
2021/01/31 10:07:09;;;;;;;18.77;13.13;;;11.10;92.10;;;;;;5092039;28;20019;-72
2021/01/31 10:09:38;;;;;;;18.08;13.80;;;10.30;92.40;;;;;;5110372;28;20023;-72
2021/01/31 10:12:26;;;;;;;20.25;14.02;;;10.00;94.50;;;;;;5091709;28;20031;-72
2021/01/31 10:14:56;;;;;;;19.10;13.50;;;10.60;94.70;;;;;;5104199;28;20049;-72
2021/01/31 10:20:32;;;;;;;18.00;13.40;;;10.70;91.80;;;;;;5111925;27;20424;-72
2021/01/31 10:23:19;;;;;;;17.73;13.30;;;11.30;90.10;;;;;;5110405;28;20422;-72
2021/01/31 10:26:02;;;;;;;19.48;13.23;;;10.40;91.80;;;;;;5095550;28;20059;-73
2021/01/31 10:28:31;;;;;;;16.98;12.55;;;10.60;93.10;;;;;;5110615;28;20103;-74
2021/01/31 10:30:58;;;;;;;18.45;13.98;;;11.00;88.40;;;;;;5093334;28;20395;-73
2021/01/31 10:33:46;;;;;;;20.85;13.57;;;10.60;91.60;;;;;;5110554;28;20020;-74
2021/01/31 10:36:26;;;;;;;18.83;13.75;;;9.40;93.80;;;;;;5111021;28;20024;-73
2021/01/31 10:38:53;;;;;;;21.05;14.13;;;9.60;96.60;;;;;;5093348;28;20027;-74
2021/01/31 10:41:20;;;;;;;18.63;13.93;;;10.00;94.10;;;;;;5109782;28;20026;-74
2021/01/31 10:43:54;;;;;;;18.13;13.10;;;10.80;94.60;;;;;;5092794;28;20448;-74
2021/01/31 10:46:20;;;;;;;17.25;13.20;;;11.00;91.80;;;;;;5109699;28;20047;-74
2021/01/31 10:48:45;;;;;;;19.70;13.60;;;9.80;96.10;;;;;;5110220;28;20063;-74
2021/01/31 10:51:11;;;;;;;17.83;12.80;;;9.90;97.20;;;;;;5093206;28;20024;-74
2021/01/31 10:53:36;;;;;;;19.20;13.80;;;10.50;93.70;;;;;;5092621;28;20074;-74
2021/01/31 10:56:02;;;;;;;17.95;13.10;;;9.00;96.50;;;;;;5110180;28;20517;-74
2021/01/31 10:58:27;;;;;;;19.38;14.13;;;10.30;97.30;;;;;;5109898;28;20031;-74
2021/01/31 11:00:53;;;;;;;20.08;13.68;;;11.30;89.20;;;;;;5092488;28;20097;-74
2021/01/31 11:03:18;;;;;;;16.67;13.65;;;11.40;90.40;;;;;;5109914;28;20023;-74
2021/01/31 11:05:44;;;;;;;18.77;13.88;;;9.80;91.30;;;;;;5092327;28;20023;-74
2021/01/31 11:08:10;;;;;;;22.40;14.52;;;9.20;97.90;;;;;;5109654;28;20024;-74
2021/01/31 11:10:35;;;;;;;20.02;13.70;;;9.20;96.70;;;;;;5110793;28;20028;-74
2021/01/31 11:13:01;;;;;;;19.05;12.75;;;9.20;99.30;;;;;;5109598;28;20533;-74
2021/01/31 11:15:27;;;;;;;19.25;13.93;;;8.90;97.80;;;;;;5092259;28;20020;-75
2021/01/31 11:17:52;;;;;;;19.70;13.02;;;9.00;97.50;;;;;;5110518;28;20059;-75
2021/01/31 11:20:18;;;;;;;19.98;14.50;;;9.40;96.30;;;;;;5092622;28;20032;-74
2021/01/31 11:22:43;;;;;;;20.60;14.15;;;8.30;99.90;;;;;;5109050;28;20028;-75
2021/01/31 11:25:09;;;;;;;19.58;13.52;;;8.80;99.90;;;;;;5109576;28;20027;-74
2021/01/31 11:27:35;;;;;;;18.77;14.18;;;9.50;97.80;;;;;;5109683;28;20364;-74
2021/01/31 11:30:00;;;;;;;20.85;14.32;;;9.10;99.90;;;;;;5103426;28;20032;-74
2021/01/31 11:32:26;;;;;;;19.95;14.40;;;8.70;99.90;;;;;;5078384;28;20056;-74
2021/01/31 11:34:52;;;;;;;22.15;14.40;;;7.40;99.90;;;;;;5095149;28;20465;-73
2021/01/31 11:37:17;;;;;;;22.95;14.85;;;6.80;99.90;;;;;;5096703;28;20028;-74
2021/01/31 11:39:43;;;;;;;25.52;15.07;;;5.60;99.90;;;;;;5094963;28;20028;-74
2021/01/31 11:42:08;;;;;;;24.08;14.73;;;5.00;99.90;;;;;;5096836;28;20032;-74
2021/01/31 11:44:34;;;;;;;22.05;14.38;;;4.90;99.90;;;;;;5095551;28;20031;-74
2021/01/31 11:46:59;;;;;;;22.00;13.95;;;5.00;99.90;;;;;;5095784;28;20016;-74
2021/01/31 11:49:25;;;;;;;22.48;14.85;;;4.70;99.90;;;;;;5095629;28;20020;-74
2021/01/31 11:51:51;;;;;;;23.90;14.15;;;4.30;99.90;;;;;;5094817;28;20024;-74
2021/01/31 11:54:17;;;;;;;22.95;13.73;;;4.30;99.90;;;;;;5095179;28;20032;-73
2021/01/31 11:56:42;;;;;;;25.15;14.80;;;4.30;99.90;;;;;;5077846;28;20020;-73
2021/01/31 11:59:09;;;;;;;22.83;13.68;;;4.10;99.90;;;;;;5095007;28;20447;-74
2021/01/31 12:01:38;;;;;;;21.95;13.85;;;3.90;99.90;;;;;;5077928;28;20069;-74
2021/01/31 12:04:04;;;;;;;24.63;14.27;;;3.70;99.90;;;;;;5094963;28;20465;-74
2021/01/31 12:06:29;;;;;;;24.33;14.38;;;3.20;99.90;;;;;;5094800;28;20085;-74
2021/01/31 12:08:55;;;;;;;24.67;13.80;;;3.30;99.90;;;;;;5095116;28;20422;-74
2021/01/31 12:11:20;;;;;;;20.98;13.02;;;3.30;99.90;;;;;;5096150;28;20468;-74
2021/01/31 12:13:46;;;;;;;24.10;13.85;;;3.20;99.90;;;;;;5094683;28;20031;-74
2021/01/31 12:16:11;;;;;;;24.80;13.63;;;3.20;99.90;;;;;;5094731;28;20077;-74
2021/01/31 12:18:37;;;;;;;22.33;13.27;;;3.30;99.90;;;;;;5077257;28;20092;-74
2021/01/31 12:21:02;;;;;;;23.40;14.32;;;3.40;99.90;;;;;;5094664;28;20051;-74
2021/01/31 12:23:28;;;;;;;21.30;12.88;;;3.40;99.90;;;;;;5095098;28;20028;-74
2021/01/31 12:25:54;;;;;;;23.67;13.85;;;3.70;99.90;;;;;;5077857;28;20420;-74
2021/01/31 12:28:19;;;;;;;24.27;12.93;;;3.80;99.90;;;;;;5077314;28;20031;-74
2021/01/31 12:30:45;;;;;;;22.52;14.00;;;3.70;99.90;;;;;;5077264;28;20024;-74
2021/01/31 12:33:11;;;;;;;24.20;14.13;;;3.50;99.90;;;;;;5077260;28;20418;-74
2021/01/31 12:35:37;;;;;;;20.52;13.25;;;3.20;99.90;;;;;;5077644;28;20050;-74
2021/01/31 12:38:03;;;;;;;24.92;13.52;;;3.20;99.90;;;;;;5094230;28;20078;-74
2021/01/31 12:40:30;;;;;;;23.40;13.68;;;3.20;99.90;;;;;;5094553;28;20085;-74
2021/01/31 12:42:55;;;;;;;22.27;13.25;;;3.40;99.90;;;;;;5093303;28;20093;-74
2021/01/31 12:45:22;;;;;;;24.67;13.60;;;3.40;99.90;;;;;;5094064;28;20024;-74
2021/01/31 12:47:48;;;;;;;25.75;14.70;;;3.20;99.90;;;;;;5095606;28;20068;-73
2021/01/31 12:50:15;;;;;;;25.00;13.93;;;3.10;99.90;;;;;;5095547;28;20024;-74
2021/01/31 12:52:41;;;;;;;24.98;13.52;;;3.10;99.90;;;;;;5094364;28;20499;-73
2021/01/31 12:55:08;;;;;;;24.27;14.00;;;3.20;99.90;;;;;;5077269;28;20031;-74
2021/01/31 12:57:34;;;;;;;23.65;13.77;;;3.20;99.90;;;;;;5093927;28;20417;-74
2021/01/31 12:59:59;;;;;;;22.65;13.15;;;3.20;99.90;;;;;;5093766;28;20086;-74
2021/01/31 13:02:26;;;;;;;23.10;14.10;;;3.20;99.90;;;;;;5076653;28;20020;-74
2021/01/31 13:04:51;;;;;;;24.60;14.60;;;2.90;99.90;;;;;;5093776;28;20028;-73
2021/01/31 13:07:17;;;;;;;24.75;14.13;;;2.80;99.90;;;;;;5093347;28;20563;-74
2021/01/31 13:09:42;;;;;;;24.55;14.90;;;3.00;99.90;;;;;;5076355;28;20028;-74
2021/01/31 13:12:08;;;;;;;26.65;14.38;;;2.90;99.90;;;;;;5076875;28;20034;-73
2021/01/31 13:14:36;;;;;;;23.63;13.88;;;3.10;99.90;;;;;;5076203;28;20073;-74
2021/01/31 13:17:01;;;;;;;22.88;13.30;;;3.10;99.90;;;;;;5094969;28;20035;-73
2021/01/31 13:19:29;;;;;;;33.90;13.80;;;3.20;99.90;;;;;;5076074;28;20135;-73
2021/01/31 13:21:54;;;;;;;22.27;13.73;;;3.10;99.90;;;;;;5094708;28;20019;-74
2021/01/31 13:24:20;;;;;;;23.45;13.30;;;3.30;99.90;;;;;;5094573;28;20017;-74
2021/01/31 13:26:45;;;;;;;22.15;12.90;;;3.30;99.90;;;;;;5093261;28;20024;-74
2021/01/31 13:29:11;;;;;;;21.95;13.57;;;3.30;99.90;;;;;;5093281;28;20081;-74
2021/01/31 13:31:36;;;;;;;22.85;13.70;;;3.10;99.90;;;;;;5075987;28;20118;-74